Time;durP1;ratioP1;P1;durP2;ratioP2;P2;SDS_P1;SDS_P2;PMS_P1;PMS_P2;Temp;Humidity;BMP_temperature;BMP_pressure;BME280_temperature;BME280_humidity;BME280_pressure;Samples;Min_cycle;Max_cycle;Signal;HPM_P1;HPM_P2
2021/06/03 00:02:10;;;;;;;0.20;0.20;;;16.30;99.90;;;;;;5068497;28;20028;-85
2021/06/03 00:04:36;;;;;;;0.40;0.40;;;16.40;99.90;;;;;;5066736;28;20032;-85
2021/06/03 00:07:03;;;;;;;0.10;0.10;;;16.40;99.90;;;;;;5068570;28;20024;-84
2021/06/03 00:09:29;;;;;;;;;;;16.50;99.90;;;;;;5067153;28;20020;-85
2021/06/03 00:11:56;;;;;;;0.20;0.20;;;16.50;99.90;;;;;;5069008;28;20008;-84
2021/06/03 00:14:22;;;;;;;0.52;0.35;;;16.60;99.90;;;;;;5066872;28;20020;-84
2021/06/03 00:16:48;;;;;;;0.10;0.10;;;16.60;99.90;;;;;;5067172;28;20028;-84
2021/06/03 00:19:14;;;;;;;0.40;0.40;;;16.70;99.90;;;;;;5068012;28;20025;-83
2021/06/03 00:21:42;;;;;;;0.30;0.30;;;16.50;99.90;;;;;;5068106;28;20044;-83
2021/06/03 00:24:08;;;;;;;0.32;0.32;;;16.40;99.90;;;;;;5068444;28;20021;-84
2021/06/03 00:26:35;;;;;;;0.20;0.20;;;16.50;99.90;;;;;;5067102;28;20101;-84
2021/06/03 00:29:03;;;;;;;0.22;0.22;;;16.60;99.90;;;;;;5058693;28;20048;-83
2021/06/03 00:31:29;;;;;;;0.10;0.10;;;16.50;99.90;;;;;;5067489;28;20024;-85
2021/06/03 00:33:55;;;;;;;0.10;0.10;;;16.40;99.90;;;;;;5066822;28;20032;-85
2021/06/03 00:36:21;;;;;;;0.20;0.20;;;16.60;99.90;;;;;;5067678;28;20032;-84
2021/06/03 00:38:46;;;;;;;0.20;0.20;;;16.50;99.90;;;;;;5068634;28;20020;-85
2021/06/03 00:41:14;;;;;;;5.60;1.67;;;16.50;99.90;;;;;;5067091;28;20082;-85
2021/06/03 00:43:40;;;;;;;0.32;0.32;;;16.50;99.90;;;;;;5066258;28;20115;-85
2021/06/03 00:46:07;;;;;;;0.05;0.05;;;16.60;99.90;;;;;;5066600;28;20520;-85
2021/06/03 00:48:33;;;;;;;3.88;1.35;;;16.50;99.90;;;;;;5065973;28;20036;-85
2021/06/03 00:51:01;;;;;;;0.10;0.10;;;16.40;99.90;;;;;;5066435;28;20047;-85
2021/06/03 00:53:28;;;;;;;0.10;0.10;;;16.30;99.90;;;;;;5067211;28;20498;-85
2021/06/03 00:55:56;;;;;;;0.80;0.80;;;16.40;99.90;;;;;;5067835;28;20021;-84
2021/06/03 00:58:23;;;;;;;0.20;0.20;;;16.40;99.90;;;;;;5065408;28;20067;-85
2021/06/03 01:00:50;;;;;;;;;;;16.60;99.90;;;;;;5066395;28;20020;-84
2021/06/03 01:03:16;;;;;;;0.15;0.15;;;16.40;99.90;;;;;;5066994;28;19923;-84
2021/06/03 01:05:46;;;;;;;0.20;0.20;;;16.30;99.90;;;;;;5067538;28;20021;-85
2021/06/03 01:08:15;;;;;;;1.23;0.75;;;16.40;99.90;;;;;;5062088;28;20028;-84
2021/06/03 01:10:48;;;;;;;0.20;0.20;;;16.40;99.90;;;;;;5066145;28;20413;-84
2021/06/03 01:13:32;;;;;;;0.38;0.38;;;16.20;99.90;;;;;;5065903;28;20021;-84
2021/06/03 01:16:01;;;;;;;0.05;0.05;;;16.40;99.90;;;;;;5066988;28;20028;-84
2021/06/03 01:18:29;;;;;;;0.20;0.20;;;16.50;99.90;;;;;;5067619;28;20021;-84
2021/06/03 01:20:56;;;;;;;0.10;0.10;;;16.50;99.90;;;;;;5065713;28;20024;-84
2021/06/03 01:23:26;;;;;;;0.15;0.15;;;16.40;99.90;;;;;;5066617;28;20023;-84
2021/06/03 01:25:54;;;;;;;0.20;0.20;;;16.40;99.90;;;;;;5067109;28;20038;-85
2021/06/03 01:28:20;;;;;;;0.30;0.30;;;16.20;99.90;;;;;;5066881;28;20033;-84
2021/06/03 01:30:49;;;;;;;0.17;0.17;;;16.10;99.90;;;;;;5065400;28;20041;-85
2021/06/03 01:33:18;;;;;;;0.57;0.57;;;16.10;99.90;;;;;;5065866;28;20056;-84
2021/06/03 01:35:47;;;;;;;0.10;0.10;;;16.10;99.90;;;;;;5067123;28;20024;-84
2021/06/03 01:38:17;;;;;;;1.90;0.30;;;16.00;99.90;;;;;;5067847;28;20013;-84
2021/06/03 01:40:45;;;;;;;0.10;0.10;;;16.00;99.90;;;;;;5067149;28;20028;-84
2021/06/03 01:43:13;;;;;;;0.10;0.10;;;16.00;99.90;;;;;;5067326;28;20097;-84
2021/06/03 01:45:40;;;;;;;0.35;0.35;;;15.80;99.90;;;;;;5066311;28;20054;-84
2021/06/03 01:48:07;;;;;;;0.40;0.40;;;15.90;99.90;;;;;;5065588;28;20436;-85
2021/06/03 01:50:34;;;;;;;0.20;0.20;;;15.90;99.90;;;;;;5066425;28;20520;-85
2021/06/03 01:53:01;;;;;;;0.20;0.20;;;15.80;99.90;;;;;;5067240;28;20021;-85
2021/06/03 01:55:27;;;;;;;;;;;16.00;99.90;;;;;;5066485;28;20027;-85
2021/06/03 01:57:53;;;;;;;0.10;0.10;;;15.90;99.90;;;;;;5070455;28;19908;-85
2021/06/03 02:00:21;;;;;;;0.10;0.10;;;15.90;99.90;;;;;;5070873;28;20031;-85
2021/06/03 02:02:47;;;;;;;0.13;0.13;;;15.80;99.90;;;;;;5070916;28;20033;-86
2021/06/03 02:05:14;;;;;;;0.30;0.30;;;15.90;99.90;;;;;;5069503;28;20032;-86
2021/06/03 02:07:40;;;;;;;1.40;0.52;;;15.80;99.90;;;;;;5070152;28;20271;-85
2021/06/03 02:10:07;;;;;;;0.40;0.40;;;15.80;99.90;;;;;;5069330;28;20413;-85
2021/06/03 02:12:35;;;;;;;0.30;0.30;;;15.70;99.90;;;;;;5069335;28;20024;-86
2021/06/03 02:15:04;;;;;;;0.10;0.10;;;15.80;99.90;;;;;;5070198;28;20024;-86
2021/06/03 02:17:34;;;;;;;0.20;0.20;;;15.80;99.90;;;;;;5069463;28;20036;-86
2021/06/03 02:20:10;;;;;;;0.17;0.17;;;15.70;99.90;;;;;;5070807;28;20032;-86
2021/06/03 02:22:37;;;;;;;0.70;0.50;;;15.70;99.90;;;;;;5070923;28;20417;-87
2021/06/03 02:25:07;;;;;;;0.38;0.38;;;15.50;99.90;;;;;;5069287;28;20021;-86
2021/06/03 02:27:34;;;;;;;0.10;0.10;;;15.60;99.90;;;;;;5069876;28;20033;-86
2021/06/03 02:30:01;;;;;;;0.32;0.17;;;15.40;99.90;;;;;;5068073;28;20171;-86
2021/06/03 02:32:31;;;;;;;0.20;0.10;;;15.50;99.90;;;;;;5069008;28;20033;-86
2021/06/03 02:34:57;;;;;;;0.25;0.17;;;15.50;99.90;;;;;;5070925;28;20147;-86
2021/06/03 02:37:24;;;;;;;0.20;0.20;;;15.40;99.90;;;;;;5069717;28;20082;-86
2021/06/03 02:39:56;;;;;;;0.85;0.50;;;15.70;99.90;;;;;;5070433;28;20277;-86
2021/06/03 02:42:23;;;;;;;0.08;0.08;;;15.60;99.90;;;;;;5070194;28;20397;-86
2021/06/03 02:44:48;;;;;;;0.10;0.10;;;15.40;99.90;;;;;;5069998;28;20028;-86
2021/06/03 02:47:14;;;;;;;0.40;0.20;;;15.40;99.90;;;;;;5068657;28;20025;-85
2021/06/03 02:49:40;;;;;;;0.30;0.30;;;15.50;99.90;;;;;;5068168;28;20428;-86
2021/06/03 02:52:07;;;;;;;0.10;0.10;;;15.50;99.90;;;;;;5069458;28;20054;-86
2021/06/03 02:54:33;;;;;;;0.15;0.15;;;15.50;99.90;;;;;;5069797;28;20024;-87
2021/06/03 02:56:59;;;;;;;0.15;0.15;;;15.40;99.90;;;;;;5068298;28;20478;-86
2021/06/03 02:59:26;;;;;;;0.10;0.10;;;15.40;99.90;;;;;;5069354;28;20115;-86
2021/06/03 03:01:51;;;;;;;0.25;0.10;;;15.50;99.90;;;;;;5063377;28;20029;-86
2021/06/03 03:04:17;;;;;;;0.10;0.10;;;15.40;99.90;;;;;;5069998;28;20417;-86
2021/06/03 03:06:43;;;;;;;0.30;0.30;;;15.30;99.90;;;;;;5068230;28;20039;-86
2021/06/03 03:09:09;;;;;;;0.10;0.10;;;15.20;99.90;;;;;;5068216;28;20036;-87
2021/06/03 03:11:34;;;;;;;0.40;0.40;;;15.30;99.90;;;;;;5069807;28;20029;-86
2021/06/03 03:14:00;;;;;;;0.47;0.20;;;15.40;99.90;;;;;;5067798;28;20027;-87
2021/06/03 03:16:26;;;;;;;0.20;0.20;;;15.30;99.90;;;;;;5070490;28;20028;-87
2021/06/03 03:18:52;;;;;;;0.57;0.47;;;15.40;99.90;;;;;;5067784;28;20112;-86
2021/06/03 03:21:18;;;;;;;0.20;0.20;;;15.40;99.90;;;;;;5070176;28;20052;-87
2021/06/03 03:23:43;;;;;;;0.40;0.40;;;15.40;99.90;;;;;;5069528;28;20085;-86
2021/06/03 03:26:09;;;;;;;0.27;0.27;;;15.30;99.90;;;;;;5069733;28;20035;-86
2021/06/03 03:28:35;;;;;;;0.33;0.23;;;15.40;99.90;;;;;;5068008;28;20671;-86
2021/06/03 03:31:01;;;;;;;0.17;0.17;;;15.40;99.90;;;;;;5069577;28;20100;-86
2021/06/03 03:33:28;;;;;;;0.30;0.30;;;15.50;99.90;;;;;;5069545;28;20020;-86
2021/06/03 03:35:54;;;;;;;0.10;0.10;;;15.40;99.90;;;;;;5069200;28;20032;-86
2021/06/03 03:38:22;;;;;;;0.57;0.40;;;15.40;99.90;;;;;;5069461;28;20021;-86
2021/06/03 03:40:49;;;;;;;0.30;0.30;;;15.30;99.90;;;;;;5068946;28;20028;-86
2021/06/03 03:43:15;;;;;;;0.20;0.20;;;15.30;99.90;;;;;;5067756;28;20023;-86
2021/06/03 03:45:41;;;;;;;0.30;0.30;;;15.20;99.90;;;;;;5069269;28;20115;-86
2021/06/03 03:48:07;;;;;;;8.63;1.70;;;15.20;99.90;;;;;;5068199;28;20120;-86
2021/06/03 03:50:35;;;;;;;0.22;0.22;;;15.10;99.90;;;;;;5068895;28;20086;-85
2021/06/03 03:53:01;;;;;;;0.20;0.20;;;15.00;99.90;;;;;;5067705;28;20471;-86
2021/06/03 03:55:27;;;;;;;0.20;0.20;;;15.00;99.90;;;;;;5069733;28;20028;-86
2021/06/03 03:57:53;;;;;;;0.10;0.10;;;14.90;99.90;;;;;;5066949;28;20028;-85
2021/06/03 04:00:25;;;;;;;0.60;0.60;;;14.80;99.90;;;;;;5069354;28;20052;-86
2021/06/03 04:02:51;;;;;;;0.20;0.20;;;14.90;99.90;;;;;;5067149;28;20039;-87
2021/06/03 04:05:17;;;;;;;2.80;1.25;;;14.60;99.90;;;;;;5068540;28;20409;-87
2021/06/03 04:07:43;;;;;;;1.00;0.90;;;14.60;99.90;;;;;;5067528;28;20098;-86
2021/06/03 04:10:13;;;;;;;0.20;0.20;;;14.60;99.90;;;;;;5068734;28;20039;-86
2021/06/03 04:12:40;;;;;;;0.10;0.10;;;14.50;99.90;;;;;;5068944;28;20838;-86
2021/06/03 04:15:08;;;;;;;0.20;0.20;;;14.50;99.90;;;;;;5066917;28;20513;-85
2021/06/03 04:17:34;;;;;;;0.28;0.28;;;14.50;99.90;;;;;;5068898;28;20246;-86
2021/06/03 04:19:59;;;;;;;0.10;0.10;;;14.60;99.90;;;;;;5067236;28;20587;-86
2021/06/03 04:22:33;;;;;;;0.10;0.10;;;14.70;99.90;;;;;;5065840;28;20036;-85
2021/06/03 04:25:08;;;;;;;0.10;0.10;;;15.20;99.90;;;;;;5066799;28;20036;-86
2021/06/03 04:27:37;;;;;;;0.20;0.20;;;15.40;99.90;;;;;;5068276;28;20036;-87
2021/06/03 04:30:09;;;;;;;0.60;0.35;;;15.50;99.90;;;;;;5067260;28;20043;-87
2021/06/03 04:32:35;;;;;;;0.10;0.10;;;15.90;99.90;;;;;;5067190;28;20029;-88
2021/06/03 04:35:03;;;;;;;0.00;0.00;;;16.10;99.90;;;;;;5067476;28;20024;-88
2021/06/03 04:37:29;;;;;;;0.10;0.10;;;16.20;99.90;;;;;;5067507;28;20379;-88
2021/06/03 04:39:55;;;;;;;0.37;0.30;;;16.30;99.90;;;;;;5067755;28;20043;-88
2021/06/03 04:42:20;;;;;;;0.10;0.10;;;16.30;99.90;;;;;;5066788;28;20029;-88
2021/06/03 04:44:46;;;;;;;0.10;0.10;;;16.60;99.90;;;;;;5068075;28;20024;-87
2021/06/03 04:47:12;;;;;;;1.10;0.53;;;16.90;99.90;;;;;;5067305;28;20029;-86
2021/06/03 04:49:38;;;;;;;0.17;0.17;;;17.40;99.90;;;;;;5068451;28;20772;-88
2021/06/03 04:54:49;;;;;;;0.05;0.05;;;18.30;99.40;;;;;;5068190;28;20127;-87
2021/06/03 04:57:14;;;;;;;0.00;0.00;;;18.40;98.00;;;;;;5067058;28;20671;-84
2021/06/03 04:59:40;;;;;;;0.10;0.10;;;18.90;97.80;;;;;;5066633;28;20054;-84
2021/06/03 05:02:06;;;;;;;0.23;0.13;;;19.20;96.20;;;;;;5066036;28;20424;-85
2021/06/03 05:04:45;;;;;;;0.10;0.10;;;19.50;96.20;;;;;;5067881;28;20035;-84
2021/06/03 05:07:10;;;;;;;0.30;0.30;;;19.80;94.20;;;;;;5043037;28;20410;-84
2021/06/03 05:09:38;;;;;;;0.20;0.20;;;20.20;94.30;;;;;;5065241;28;20090;-83
2021/06/03 05:12:05;;;;;;;0.10;0.10;;;20.10;94.20;;;;;;5068134;28;20519;-82
2021/06/03 05:14:30;;;;;;;0.70;0.47;;;19.80;94.80;;;;;;5063986;28;20025;-84
2021/06/03 05:16:58;;;;;;;0.00;0.00;;;19.80;94.90;;;;;;5067571;28;20090;-84
2021/06/03 05:19:24;;;;;;;0.10;0.10;;;19.50;94.70;;;;;;5067789;28;20024;-84
2021/06/03 05:21:49;;;;;;;0.08;0.08;;;20.10;95.10;;;;;;5066690;28;20040;-86
2021/06/03 05:24:15;;;;;;;0.13;0.03;;;19.90;94.00;;;;;;5067630;28;20664;-84
2021/06/03 05:26:41;;;;;;;0.00;0.00;;;20.60;92.60;;;;;;5068069;28;20036;-84
2021/06/03 05:29:14;;;;;;;0.15;0.15;;;21.50;91.60;;;;;;5065063;28;20115;-85
2021/06/03 05:31:42;;;;;;;0.10;0.10;;;22.30;91.10;;;;;;5066261;28;20033;-83
2021/06/03 05:34:10;;;;;;;0.00;0.00;;;22.80;87.80;;;;;;5067169;28;20056;-86
2021/06/03 05:36:36;;;;;;;0.32;0.15;;;23.40;81.50;;;;;;5065513;28;20036;-86
2021/06/03 05:39:04;;;;;;;0.10;0.10;;;23.40;82.10;;;;;;5055296;28;20033;-84
2021/06/03 05:41:29;;;;;;;0.08;0.08;;;24.80;80.30;;;;;;5052254;28;20055;-90
2021/06/03 05:43:55;;;;;;;0.00;0.00;;;24.40;80.00;;;;;;5067234;28;20063;-88
2021/06/03 05:46:21;;;;;;;0.10;0.10;;;24.30;75.90;;;;;;5065944;28;20047;-86
2021/06/03 05:48:53;;;;;;;0.28;0.20;;;24.30;80.20;;;;;;5066377;28;20020;-85
2021/06/03 05:51:19;;;;;;;0.98;0.47;;;23.80;76.90;;;;;;5067914;28;20044;-86
2021/06/03 05:53:46;;;;;;;0.00;0.00;;;25.10;73.30;;;;;;5068528;28;20048;-86
2021/06/03 05:56:12;;;;;;;0.25;0.05;;;25.40;72.50;;;;;;5066818;28;20029;-85
2021/06/03 05:58:37;;;;;;;0.00;0.00;;;25.60;71.70;;;;;;5067934;28;20081;-85
2021/06/03 06:01:04;;;;;;;13.90;1.50;;;25.10;73.80;;;;;;5065970;28;20028;-86
2021/06/03 06:03:40;;;;;;;;;;;25.40;70.90;;;;;;5067047;28;20497;-87
2021/06/03 06:08:41;;;;;;;0.00;0.00;;;24.70;68.20;;;;;;5066675;28;20079;-85
2021/06/03 06:11:07;;;;;;;0.52;0.35;;;25.20;71.50;;;;;;5067584;28;20016;-85
2021/06/03 06:13:34;;;;;;;0.43;0.20;;;25.30;73.30;;;;;;5066899;28;20024;-86
2021/06/03 06:16:00;;;;;;;0.30;0.30;;;25.20;70.80;;;;;;5067582;28;20016;-87
2021/06/03 06:18:27;;;;;;;0.00;0.00;;;26.90;71.20;;;;;;5066015;28;20050;-87
2021/06/03 06:20:52;;;;;;;0.20;0.00;;;27.70;65.00;;;;;;5066674;28;20073;-87
2021/06/03 06:23:18;;;;;;;0.13;0.03;;;27.00;60.40;;;;;;5065970;28;20116;-87
2021/06/03 06:25:45;;;;;;;0.10;0.10;;;26.90;63.40;;;;;;5066869;28;20103;-87
2021/06/03 06:28:14;;;;;;;0.03;0.03;;;27.20;62.10;;;;;;5060045;28;20064;-86
2021/06/03 06:30:43;;;;;;;0.85;0.20;;;27.80;62.30;;;;;;5064481;28;20609;-87
2021/06/03 06:33:10;;;;;;;0.00;0.00;;;27.60;64.10;;;;;;5065573;28;20505;-87
2021/06/03 06:35:36;;;;;;;0.05;0.05;;;27.20;61.20;;;;;;5065143;28;20054;-87
2021/06/03 06:38:03;;;;;;;0.10;0.10;;;28.70;56.40;;;;;;5065606;28;20102;-87
2021/06/03 06:40:30;;;;;;;1.10;0.43;;;28.90;55.90;;;;;;5065187;28;20043;-87
2021/06/03 06:42:57;;;;;;;0.08;0.08;;;28.00;59.60;;;;;;5066203;28;20060;-87
2021/06/03 06:45:29;;;;;;;0.00;0.00;;;28.40;57.80;;;;;;5068697;28;20032;-87
2021/06/03 06:47:57;;;;;;;0.00;0.00;;;27.70;57.00;;;;;;5068314;28;20070;-87
2021/06/03 06:50:26;;;;;;;0.17;0.17;;;27.50;58.50;;;;;;5066501;28;20021;-87
2021/06/03 06:52:53;;;;;;;0.00;0.00;;;27.50;71.30;;;;;;5068303;28;20032;-86
2021/06/03 06:55:19;;;;;;;0.13;0.10;;;27.00;59.90;;;;;;5060830;28;20046;-86
2021/06/03 06:57:45;;;;;;;0.00;0.00;;;26.80;58.40;;;;;;5068676;28;20501;-87
2021/06/03 07:00:11;;;;;;;;;;;26.90;59.70;;;;;;5067986;28;20835;-86
2021/06/03 07:02:37;;;;;;;0.30;0.30;;;27.60;57.40;;;;;;5067657;28;19983;-86
2021/06/03 07:05:07;;;;;;;0.08;0.08;;;28.10;55.40;;;;;;5069152;28;20032;-86
2021/06/03 07:07:33;;;;;;;0.05;0.05;;;28.60;51.80;;;;;;5068869;28;20035;-86
2021/06/03 07:09:59;;;;;;;0.10;0.10;;;27.80;51.30;;;;;;5068178;28;20454;-86
2021/06/03 07:12:26;;;;;;;0.15;0.15;;;29.30;45.50;;;;;;5066659;28;20023;-88
2021/06/03 07:14:52;;;;;;;0.00;0.00;;;30.20;44.00;;;;;;5068099;28;20050;-89
2021/06/03 07:17:18;;;;;;;;;;;27.70;47.50;;;;;;5066941;28;20142;-88
2021/06/03 07:19:43;;;;;;;0.25;0.25;;;28.90;45.90;;;;;;5069622;28;19905;-87
2021/06/03 07:22:10;;;;;;;;;;;29.20;48.40;;;;;;5067770;28;20034;-89
2021/06/03 07:24:37;;;;;;;0.00;0.00;;;28.90;45.50;;;;;;5067333;28;19920;-88
2021/06/03 07:27:06;;;;;;;0.13;0.13;;;31.00;39.90;;;;;;5067984;28;20023;-88
2021/06/03 07:29:35;;;;;;;0.52;0.38;;;30.30;45.20;;;;;;5066815;28;20051;-89
2021/06/03 07:32:01;;;;;;;0.10;0.10;;;31.30;43.60;;;;;;5066123;28;20054;-88
2021/06/03 07:34:27;;;;;;;0.00;0.00;;;30.70;37.40;;;;;;5066987;28;20616;-89
2021/06/03 07:36:53;;;;;;;2.72;1.23;;;32.60;38.00;;;;;;5067364;28;20017;-88
2021/06/03 07:39:21;;;;;;;0.22;0.22;;;32.30;35.90;;;;;;5068272;28;20029;-88
2021/06/03 07:41:47;;;;;;;0.00;0.00;;;33.40;34.10;;;;;;5066772;28;20031;-88
2021/06/03 07:44:13;;;;;;;1.70;0.77;;;31.30;31.00;;;;;;5067409;28;20115;-88
2021/06/03 07:46:39;;;;;;;0.00;0.00;;;31.90;29.90;;;;;;5060152;28;20103;-89
2021/06/03 07:49:06;;;;;;;0.00;0.00;;;33.00;31.70;;;;;;5066703;28;20509;-89
2021/06/03 07:51:33;;;;;;;0.30;0.20;;;31.00;35.90;;;;;;5066177;28;20024;-89
2021/06/03 07:53:59;;;;;;;0.00;0.00;;;31.20;28.70;;;;;;5066985;28;20077;-89
2021/06/03 07:56:25;;;;;;;0.13;0.13;;;30.90;29.80;;;;;;5065664;28;20106;-89
2021/06/03 07:58:50;;;;;;;0.00;0.00;;;30.70;30.00;;;;;;5066876;28;20029;-88
2021/06/03 08:01:16;;;;;;;0.00;0.00;;;31.40;30.00;;;;;;5066827;28;20024;-89
2021/06/03 08:03:42;;;;;;;0.00;0.00;;;30.50;33.30;;;;;;5068100;28;20371;-89
2021/06/03 08:06:09;;;;;;;0.03;0.03;;;29.90;30.20;;;;;;5063389;28;20024;-88
2021/06/03 08:08:38;;;;;;;0.30;0.30;;;32.00;29.20;;;;;;5064068;28;20025;-88
2021/06/03 08:11:05;;;;;;;0.10;0.10;;;31.80;27.30;;;;;;5066297;28;20024;-89
2021/06/03 08:13:32;;;;;;;0.00;0.00;;;35.70;24.50;;;;;;5063159;28;20024;-88
2021/06/03 08:16:04;;;;;;;0.10;0.10;;;33.90;24.70;;;;;;5057871;28;20064;-88
2021/06/03 08:18:30;;;;;;;0.22;0.22;;;37.10;19.00;;;;;;5061670;28;20017;-88
2021/06/03 08:20:59;;;;;;;0.30;0.30;;;37.70;15.50;;;;;;5067592;28;20438;-88
2021/06/03 08:23:28;;;;;;;0.30;0.30;;;37.70;16.80;;;;;;5063343;28;20024;-89
2021/06/03 08:25:56;;;;;;;8.00;1.40;;;36.60;17.20;;;;;;5066101;28;20086;-88
2021/06/03 08:28:26;;;;;;;0.10;0.10;;;36.80;16.90;;;;;;5065978;28;20043;-89
2021/06/03 08:30:52;;;;;;;0.03;0.03;;;35.70;16.10;;;;;;5066580;28;20032;-89
2021/06/03 08:33:20;;;;;;;0.00;0.00;;;33.40;21.00;;;;;;5065883;28;20020;-88
2021/06/03 08:35:46;;;;;;;0.00;0.00;;;35.30;16.30;;;;;;5066158;28;20025;-89
2021/06/03 08:38:19;;;;;;;0.00;0.00;;;36.70;14.20;;;;;;5067262;28;20017;-89
2021/06/03 08:40:59;;;;;;;0.30;0.22;;;37.10;14.50;;;;;;5067442;28;20059;-89
2021/06/03 08:43:32;;;;;;;0.20;0.05;;;37.30;9.10;;;;;;5065282;28;20031;-89
2021/06/03 08:45:59;;;;;;;0.10;0.10;;;36.90;8.80;;;;;;5066139;28;20025;-89
2021/06/03 08:48:26;;;;;;;0.57;0.35;;;36.70;12.90;;;;;;5067247;28;20115;-89
2021/06/03 08:50:55;;;;;;;0.00;0.00;;;36.90;11.50;;;;;;5066505;28;20303;-89
2021/06/03 08:53:21;;;;;;;0.00;0.00;;;37.00;12.90;;;;;;5064832;28;20051;-89
2021/06/03 08:58:33;;;;;;;0.08;0.08;;;38.70;4.40;;;;;;5064847;28;20070;-89
2021/06/03 09:01:01;;;;;;;0.43;0.28;;;36.40;4.10;;;;;;5067273;28;20024;-90
2021/06/03 09:03:29;;;;;;;1.30;0.47;;;38.30;3.00;;;;;;5065073;28;20059;-90
2021/06/03 09:05:57;;;;;;;1.20;0.65;;;39.30;1.00;;;;;;5065623;28;20035;-89
2021/06/03 09:08:32;;;;;;;0.10;0.10;;;38.70;1.00;;;;;;5065386;28;20020;-89
2021/06/03 09:11:10;;;;;;;0.00;0.00;;;39.80;1.00;;;;;;5066129;28;20032;-89
2021/06/03 09:13:44;;;;;;;0.17;0.10;;;37.50;2.40;;;;;;5065358;28;20145;-90
2021/06/03 09:16:09;;;;;;;0.00;0.00;;;39.00;1.00;;;;;;5065135;28;20023;-89
2021/06/03 09:18:43;;;;;;;0.08;0.08;;;40.30;1.00;;;;;;5065416;28;20033;-90
2021/06/03 09:21:24;;;;;;;0.00;0.00;;;37.40;1.00;;;;;;5065707;28;20111;-90
2021/06/03 09:24:03;;;;;;;0.10;0.10;;;36.30;1.00;;;;;;5066633;28;20025;-89
2021/06/03 09:26:47;;;;;;;0.00;0.00;;;34.40;7.20;;;;;;5066780;28;20025;-89
2021/06/03 09:29:24;;;;;;;0.00;0.00;;;37.30;1.00;;;;;;5066515;28;20044;-89
2021/06/03 09:31:52;;;;;;;0.10;0.10;;;39.30;1.00;;;;;;5053372;28;20028;-89
2021/06/03 09:34:20;;;;;;;2.28;0.20;;;37.40;1.00;;;;;;5059781;28;20024;-89
2021/06/03 09:37:05;;;;;;;0.00;0.00;;;38.30;1.00;;;;;;5064446;28;20028;-89
2021/06/03 09:39:38;;;;;;;;;;;41.50;1.00;;;;;;5065561;28;20056;-90
2021/06/03 09:42:16;;;;;;;0.20;0.20;;;39.00;1.00;;;;;;5065115;28;19958;-89
2021/06/03 09:44:47;;;;;;;0.10;0.10;;;39.20;1.00;;;;;;5064378;28;20817;-89
2021/06/03 09:47:21;;;;;;;0.00;0.00;;;37.00;1.00;;;;;;5065189;28;20107;-89
2021/06/03 09:49:58;;;;;;;0.00;0.00;;;38.30;1.00;;;;;;5062729;28;20051;-88
2021/06/03 09:52:29;;;;;;;0.10;0.10;;;39.40;1.00;;;;;;5065874;28;20041;-89
2021/06/03 09:54:58;;;;;;;0.10;0.10;;;38.10;1.00;;;;;;5065711;28;20025;-89
2021/06/03 09:57:35;;;;;;;0.32;0.32;;;39.80;1.00;;;;;;5064271;28;20437;-90
2021/06/03 10:00:08;;;;;;;0.05;0.05;;;39.50;1.00;;;;;;5064388;28;20401;-89
2021/06/03 10:02:36;;;;;;;0.00;0.00;;;40.60;1.00;;;;;;5064717;28;20036;-89
2021/06/03 10:05:19;;;;;;;0.22;0.10;;;38.80;1.00;;;;;;5057801;28;20031;-89
2021/06/03 10:08:05;;;;;;;0.00;0.00;;;38.20;1.00;;;;;;5064340;28;20035;-88
2021/06/03 10:10:34;;;;;;;0.28;0.20;;;36.90;1.00;;;;;;5062794;28;20158;-88
2021/06/03 10:13:08;;;;;;;0.52;0.52;;;36.00;1.00;;;;;;5066368;28;20566;-88
2021/06/03 10:15:39;;;;;;;0.45;0.45;;;33.40;1.00;;;;;;5066061;28;20032;-88
2021/06/03 10:18:14;;;;;;;0.00;0.00;;;38.00;1.00;;;;;;5065903;28;20065;-88
2021/06/03 10:20:54;;;;;;;0.00;0.00;;;41.50;1.00;;;;;;5068471;28;20032;-88
2021/06/03 10:23:28;;;;;;;0.30;0.30;;;37.50;1.00;;;;;;5068316;28;20140;-89
2021/06/03 10:26:05;;;;;;;0.00;0.00;;;34.40;1.00;;;;;;5070096;28;20024;-88
2021/06/03 10:28:32;;;;;;;0.00;0.00;;;36.10;1.00;;;;;;5068604;28;20064;-87
2021/06/03 10:31:07;;;;;;;0.10;0.10;;;38.30;1.00;;;;;;5068816;28;20501;-88
2021/06/03 10:33:35;;;;;;;0.08;0.08;;;40.00;1.00;;;;;;5070134;28;20017;-87
2021/06/03 10:36:08;;;;;;;0.10;0.03;;;38.20;1.00;;;;;;5070349;28;20021;-87
2021/06/03 10:38:35;;;;;;;0.10;0.10;;;37.00;1.00;;;;;;5068672;28;20024;-89
2021/06/03 10:41:05;;;;;;;0.00;0.00;;;37.90;1.00;;;;;;5067091;28;20054;-87
2021/06/03 10:43:35;;;;;;;0.32;0.08;;;38.20;1.00;;;;;;5069958;28;20033;-88
2021/06/03 10:46:02;;;;;;;0.10;0.10;;;39.20;1.00;;;;;;5069355;28;20073;-89
2021/06/03 10:48:29;;;;;;;0.10;0.10;;;38.70;1.00;;;;;;5067932;28;20085;-89
2021/06/03 10:50:55;;;;;;;0.10;0.10;;;37.90;1.00;;;;;;5068818;28;20024;-88
2021/06/03 10:53:26;;;;;;;;;;;39.70;1.00;;;;;;5069042;28;20029;-89
2021/06/03 10:56:07;;;;;;;0.55;0.55;;;37.20;1.00;;;;;;5050744;28;19916;-88
2021/06/03 10:58:36;;;;;;;0.82;0.45;;;36.70;1.00;;;;;;5054124;28;20047;-89
2021/06/03 11:01:14;;;;;;;0.03;0.03;;;37.90;1.00;;;;;;5063981;28;20036;-89
2021/06/03 11:03:45;;;;;;;0.17;0.10;;;38.90;1.00;;;;;;5069956;28;20028;-89
2021/06/03 11:06:41;;;;;;;0.00;0.00;;;38.90;1.00;;;;;;5057879;28;20033;-89
2021/06/03 11:09:08;;;;;;;0.05;0.05;;;38.50;1.00;;;;;;5069857;28;20032;-89
2021/06/03 11:11:45;;;;;;;0.13;0.00;;;36.10;1.00;;;;;;5068447;28;20067;-90
2021/06/03 11:14:18;;;;;;;0.00;0.00;;;31.20;5.80;;;;;;5068596;28;20021;-89
2021/06/03 11:16:49;;;;;;;0.00;0.00;;;31.90;6.50;;;;;;5069990;28;20027;-88
2021/06/03 11:19:17;;;;;;;0.32;0.32;;;35.00;2.30;;;;;;5069579;28;20017;-88
2021/06/03 11:21:43;;;;;;;0.30;0.30;;;35.60;2.70;;;;;;5068022;28;20032;-87
2021/06/03 11:24:15;;;;;;;0.05;0.05;;;37.00;3.50;;;;;;5064638;28;20097;-87
2021/06/03 11:26:44;;;;;;;0.10;0.10;;;36.30;1.00;;;;;;5061321;28;20032;-87
2021/06/03 11:29:33;;;;;;;0.15;0.10;;;32.90;2.30;;;;;;5068379;28;20079;-87
2021/06/03 11:32:05;;;;;;;0.20;0.00;;;31.50;6.90;;;;;;5067246;28;20520;-86
2021/06/03 11:34:42;;;;;;;2.75;0.50;;;31.90;6.00;;;;;;5067231;28;20016;-88
2021/06/03 11:37:26;;;;;;;0.13;0.10;;;31.80;6.10;;;;;;5065357;28;20440;-88
2021/06/03 11:40:11;;;;;;;0.00;0.00;;;31.40;8.20;;;;;;5067253;28;20016;-88
2021/06/03 11:42:45;;;;;;;1.02;0.63;;;30.40;9.60;;;;;;5064770;28;20498;-87
2021/06/03 11:45:37;;;;;;;0.20;0.20;;;30.90;8.10;;;;;;5065599;28;20025;-87
2021/06/03 11:48:06;;;;;;;0.10;0.10;;;30.60;8.70;;;;;;5068569;28;20028;-88
2021/06/03 11:50:34;;;;;;;0.25;0.20;;;30.10;18.70;;;;;;5066077;28;20074;-88
2021/06/03 11:53:00;;;;;;;0.00;0.00;;;30.10;10.10;;;;;;5066943;28;20468;-87
2021/06/03 11:55:35;;;;;;;0.10;0.10;;;29.40;14.00;;;;;;5061616;28;20021;-88
2021/06/03 11:58:11;;;;;;;0.10;0.10;;;29.40;10.20;;;;;;5063188;28;20024;-88
2021/06/03 12:00:43;;;;;;;0.98;0.28;;;29.90;12.60;;;;;;5064849;28;20115;-88
2021/06/03 12:03:22;;;;;;;0.20;0.20;;;29.70;14.00;;;;;;5066171;28;20035;-87
2021/06/03 12:05:48;;;;;;;0.10;0.10;;;29.30;15.40;;;;;;5058690;28;20078;-87
2021/06/03 12:08:37;;;;;;;3.50;0.88;;;29.80;14.30;;;;;;5057710;28;20024;-87
2021/06/03 12:11:08;;;;;;;0.00;0.00;;;29.80;14.50;;;;;;5060513;28;20036;-87
2021/06/03 12:13:34;;;;;;;0.08;0.08;;;30.30;12.20;;;;;;5059101;28;20143;-87
2021/06/03 12:16:00;;;;;;;0.00;0.00;;;30.30;12.70;;;;;;5065336;28;20398;-87
2021/06/03 12:18:40;;;;;;;0.73;0.30;;;30.10;13.40;;;;;;5067039;28;20031;-87
2021/06/03 12:21:08;;;;;;;0.00;0.00;;;29.40;15.60;;;;;;5058027;28;20140;-87
2021/06/03 12:23:34;;;;;;;3.30;0.85;;;29.40;16.70;;;;;;5063238;28;20036;-87
2021/06/03 12:26:00;;;;;;;0.28;0.22;;;29.80;14.30;;;;;;5063795;28;20835;-87
2021/06/03 12:28:34;;;;;;;0.00;0.00;;;29.70;13.50;;;;;;5067979;28;20057;-87
2021/06/03 12:31:01;;;;;;;1.17;0.50;;;29.80;15.10;;;;;;5068065;28;20052;-87
2021/06/03 12:33:29;;;;;;;0.38;0.38;;;30.10;13.80;;;;;;5067317;28;20028;-87
2021/06/03 12:36:03;;;;;;;0.30;0.13;;;29.70;14.70;;;;;;5060166;28;20070;-87
2021/06/03 12:38:32;;;;;;;1.90;0.70;;;30.60;12.40;;;;;;5057531;28;20183;-87
2021/06/03 12:41:02;;;;;;;0.00;0.00;;;30.00;13.00;;;;;;5063236;28;20029;-87
2021/06/03 12:43:43;;;;;;;0.00;0.00;;;29.60;13.70;;;;;;5064139;28;20051;-86
2021/06/03 12:46:10;;;;;;;2.92;0.30;;;30.20;13.10;;;;;;5063548;28;20017;-86
2021/06/03 12:48:37;;;;;;;0.00;0.00;;;30.50;13.90;;;;;;5067153;28;20120;-85
2021/06/03 12:51:12;;;;;;;0.45;0.20;;;30.10;12.90;;;;;;5067711;28;20031;-86
2021/06/03 12:53:39;;;;;;;1.23;0.52;;;31.10;12.20;;;;;;5067127;28;21526;-86
2021/06/03 12:56:22;;;;;;;0.00;0.00;;;30.30;11.70;;;;;;5062676;28;20045;-86
2021/06/03 12:58:48;;;;;;;0.25;0.22;;;30.80;13.50;;;;;;5065789;28;20044;-86
2021/06/03 13:01:15;;;;;;;0.00;0.00;;;30.90;12.90;;;;;;5067826;28;20020;-86
2021/06/03 13:03:41;;;;;;;0.10;0.10;;;31.10;11.90;;;;;;5063742;28;20071;-86
2021/06/03 13:06:08;;;;;;;;;;;30.80;19.30;;;;;;5060621;28;20513;-85
2021/06/03 13:09:01;;;;;;;0.20;0.15;;;30.10;13.50;;;;;;5065701;28;19912;-86